Time;durP1;ratioP1;P1;durP2;ratioP2;P2;SDS_P1;SDS_P2;PMS_P1;PMS_P2;Temp;Humidity;BMP_temperature;BMP_pressure;BME280_temperature;BME280_humidity;BME280_pressure;Samples;Min_cycle;Max_cycle;Signal;HPM_P1;HPM_P2
2023/08/08 00:00:09;;;;;;;3.85;2.70;;;460.80;2380.80;;;;;;5097391;28;20035;-85
2023/08/08 00:02:36;;;;;;;6.35;2.75;;;460.80;2380.80;;;;;;5092950;28;20028;-85
2023/08/08 00:05:01;;;;;;;3.58;2.47;;;460.80;2380.80;;;;;;5094441;28;20051;-84
2023/08/08 00:07:30;;;;;;;4.30;2.67;;;460.80;2380.80;;;;;;5093802;28;20460;-84
2023/08/08 00:09:56;;;;;;;9.50;2.83;;;460.80;2380.80;;;;;;5092877;28;20055;-86
2023/08/08 00:12:22;;;;;;;5.03;2.67;;;460.80;2380.80;;;;;;5092803;28;20032;-84
2023/08/08 00:14:48;;;;;;;4.75;2.83;;;460.80;2380.80;;;;;;5093505;28;20055;-83
2023/08/08 00:17:14;;;;;;;3.63;2.67;;;460.80;2380.80;;;;;;5092675;28;20028;-85
2023/08/08 00:19:40;;;;;;;4.00;3.17;;;460.80;2380.80;;;;;;5092859;28;20127;-84
2023/08/08 00:22:06;;;;;;;3.92;2.75;;;460.80;2380.80;;;;;;5092667;28;20478;-85
2023/08/08 00:24:32;;;;;;;6.05;2.92;;;460.80;2380.80;;;;;;5092735;28;20128;-85
2023/08/08 00:26:58;;;;;;;4.78;2.80;;;460.80;2380.80;;;;;;5092704;28;20032;-84
2023/08/08 00:29:23;;;;;;;8.15;2.75;;;460.80;2380.80;;;;;;5092465;28;20081;-85
2023/08/08 00:31:49;;;;;;;7.00;2.85;;;460.90;2380.80;;;;;;5096727;28;20020;-84
2023/08/08 00:34:15;;;;;;;4.28;2.40;;;460.90;2380.80;;;;;;5096760;28;20024;-83
2023/08/08 00:36:41;;;;;;;4.05;2.60;;;460.80;2380.80;;;;;;5096821;28;20024;-87
2023/08/08 00:39:07;;;;;;;4.70;2.60;;;460.90;2380.80;;;;;;5096387;28;20468;-86
2023/08/08 00:41:39;;;;;;;7.30;3.40;;;460.80;2380.80;;;;;;5096292;28;20024;-86
2023/08/08 00:44:05;;;;;;;5.07;3.20;;;460.80;2380.80;;;;;;5096182;28;20071;-85
2023/08/08 00:46:31;;;;;;;4.38;2.80;;;460.80;2380.80;;;;;;5096625;28;20062;-84
2023/08/08 00:48:57;;;;;;;6.82;3.00;;;460.80;2380.80;;;;;;5096334;28;20452;-82
2023/08/08 00:51:24;;;;;;;8.38;3.05;;;461.00;2380.80;;;;;;5096465;28;20027;-82
2023/08/08 00:53:50;;;;;;;3.83;2.70;;;460.80;2380.80;;;;;;5097596;28;20024;-83
2023/08/08 00:56:17;;;;;;;3.83;2.70;;;460.80;2380.80;;;;;;5113018;28;20024;-83
2023/08/08 00:58:46;;;;;;;4.05;2.70;;;460.80;2380.80;;;;;;5096387;28;20035;-83
2023/08/08 01:01:12;;;;;;;6.97;3.00;;;460.80;2380.80;;;;;;5097434;28;20435;-83
2023/08/08 01:03:38;;;;;;;3.65;2.45;;;460.80;2380.80;;;;;;5096078;28;20028;-84
2023/08/08 01:06:16;;;;;;;4.15;2.50;;;460.80;2380.80;;;;;;5097402;28;20102;-82
2023/08/08 01:09:04;;;;;;;4.57;2.65;;;460.80;2380.80;;;;;;5095943;28;20119;-83
2023/08/08 01:11:33;;;;;;;3.88;2.53;;;460.90;2380.80;;;;;;5089452;28;20024;-83
2023/08/08 01:14:00;;;;;;;3.88;2.40;;;460.80;2380.80;;;;;;5076819;28;20441;-82
2023/08/08 01:16:27;;;;;;;3.50;2.40;;;460.80;2380.80;;;;;;5075428;28;20083;-84
2023/08/08 01:18:53;;;;;;;3.92;2.53;;;460.80;2380.80;;;;;;5075500;28;20033;-83
2023/08/08 01:21:20;;;;;;;4.35;2.75;;;436.10;2355.20;;;;;;5077174;28;20050;-82
2023/08/08 01:24:29;;;;;;;5.85;3.97;;;436.00;2355.20;;;;;;5075442;28;20108;-83
2023/08/08 01:26:56;;;;;;;3.85;2.25;;;436.10;2355.20;;;;;;5076665;28;20078;-84
2023/08/08 01:29:22;;;;;;;5.43;2.95;;;436.10;2355.20;;;;;;5075418;28;20115;-85
2023/08/08 01:31:47;;;;;;;3.65;2.50;;;436.10;2355.20;;;;;;5075185;28;20112;-82
2023/08/08 01:34:14;;;;;;;6.38;2.90;;;436.10;2355.20;;;;;;5075281;28;20070;-84
2023/08/08 01:36:56;;;;;;;4.80;2.75;;;460.80;2380.80;;;;;;5075137;28;20025;-84
2023/08/08 01:39:29;;;;;;;5.88;2.78;;;436.10;2355.20;;;;;;5076428;28;20036;-84
2023/08/08 01:41:56;;;;;;;6.05;2.53;;;436.10;2355.20;;;;;;5074858;28;20029;-83
2023/08/08 01:44:24;;;;;;;4.45;2.63;;;435.90;2355.20;;;;;;5075183;28;20029;-85
2023/08/08 01:46:51;;;;;;;3.55;2.53;;;436.00;2355.20;;;;;;5074715;28;20078;-82
2023/08/08 01:49:16;;;;;;;9.55;2.90;;;436.10;2355.20;;;;;;5075090;28;20029;-84
2023/08/08 01:51:42;;;;;;;7.57;2.90;;;436.10;2355.20;;;;;;5074996;28;20135;-83
2023/08/08 01:54:08;;;;;;;3.75;2.58;;;436.10;2355.20;;;;;;5074749;28;20028;-85
2023/08/08 01:56:34;;;;;;;7.60;2.72;;;435.90;2355.20;;;;;;5074911;28;20148;-83
2023/08/08 01:59:00;;;;;;;5.82;3.33;;;436.10;2355.20;;;;;;5075526;28;20036;-84
2023/08/08 02:01:26;;;;;;;6.63;3.10;;;436.00;2355.20;;;;;;5076208;28;20020;-82
2023/08/08 02:03:51;;;;;;;4.05;2.92;;;435.90;2355.20;;;;;;5074613;28;20028;-83
2023/08/08 02:06:17;;;;;;;4.07;2.90;;;436.00;2355.20;;;;;;5074551;28;20123;-86
2023/08/08 02:08:43;;;;;;;5.47;2.80;;;436.00;2355.20;;;;;;5074841;28;20036;-84
2023/08/08 02:11:09;;;;;;;5.15;2.83;;;436.10;2355.20;;;;;;5074645;28;20028;-83
2023/08/08 02:13:34;;;;;;;6.20;2.67;;;436.10;2355.20;;;;;;5074313;28;20453;-83
2023/08/08 02:16:00;;;;;;;4.97;2.90;;;436.10;2355.20;;;;;;5075796;28;20087;-84
2023/08/08 02:18:26;;;;;;;5.53;2.78;;;436.10;2355.20;;;;;;5074409;28;20082;-85
2023/08/08 02:20:52;;;;;;;9.50;3.40;;;436.10;2355.20;;;;;;5074434;28;20115;-83
2023/08/08 02:23:18;;;;;;;3.78;2.75;;;436.00;2355.20;;;;;;5074251;28;20153;-83
2023/08/08 02:25:44;;;;;;;4.72;2.70;;;436.00;2355.20;;;;;;5074247;28;20020;-85
2023/08/08 02:28:10;;;;;;;5.28;2.70;;;436.00;2355.20;;;;;;5075477;28;20104;-84
2023/08/08 02:30:35;;;;;;;5.25;2.70;;;435.90;2355.20;;;;;;5075415;28;20100;-83
2023/08/08 02:33:01;;;;;;;7.35;3.17;;;436.00;2355.20;;;;;;5075425;28;20444;-83
2023/08/08 02:35:27;;;;;;;6.00;3.10;;;435.90;2355.20;;;;;;5075282;28;20034;-85
2023/08/08 02:37:53;;;;;;;3.80;2.75;;;435.90;2355.20;;;;;;5074144;28;20064;-84
2023/08/08 02:40:18;;;;;;;5.60;3.00;;;435.90;2355.20;;;;;;5073666;28;20486;-84
2023/08/08 02:42:44;;;;;;;5.53;3.03;;;436.10;2355.20;;;;;;5073713;28;20035;-83
2023/08/08 02:45:10;;;;;;;4.97;2.75;;;436.10;2355.20;;;;;;5073569;28;20035;-83
2023/08/08 02:47:36;;;;;;;11.70;3.20;;;460.80;2380.80;;;;;;5075190;28;20455;-82
2023/08/08 02:50:02;;;;;;;7.68;3.45;;;436.10;2355.20;;;;;;5073755;28;20029;-83
2023/08/08 02:52:27;;;;;;;5.28;4.00;;;436.00;2355.20;;;;;;5073027;28;20523;-83
2023/08/08 02:54:53;;;;;;;9.65;3.55;;;436.10;2355.20;;;;;;5073843;28;20108;-82
2023/08/08 02:57:19;;;;;;;8.57;3.28;;;460.80;2380.80;;;;;;5073534;28;20058;-84
2023/08/08 02:59:45;;;;;;;6.93;3.40;;;460.80;2380.80;;;;;;5073685;28;20059;-83
2023/08/08 03:02:10;;;;;;;6.28;3.38;;;460.80;2380.80;;;;;;5073612;28;20025;-82
2023/08/08 03:04:36;;;;;;;6.07;3.58;;;460.80;2380.80;;;;;;5073578;28;20021;-83
2023/08/08 03:07:03;;;;;;;5.32;3.50;;;460.80;2380.80;;;;;;5073711;28;20446;-84
2023/08/08 03:09:30;;;;;;;6.97;3.28;;;436.10;2355.20;;;;;;5074619;28;20024;-84
2023/08/08 03:11:56;;;;;;;7.97;4.90;;;460.80;2380.80;;;;;;5076557;28;20473;-84
2023/08/08 03:14:21;;;;;;;6.07;3.67;;;436.10;2355.20;;;;;;5073198;28;20036;-83
2023/08/08 03:16:47;;;;;;;5.20;3.58;;;436.10;2355.20;;;;;;5073024;28;20050;-83
2023/08/08 03:19:13;;;;;;;6.30;2.97;;;436.10;2355.20;;;;;;5074401;28;20039;-84
2023/08/08 03:21:39;;;;;;;7.18;3.42;;;436.00;2355.20;;;;;;5073347;28;20021;-83
2023/08/08 03:24:05;;;;;;;4.97;3.17;;;436.00;2355.20;;;;;;5074431;28;20357;-83
2023/08/08 03:26:30;;;;;;;5.65;3.75;;;436.00;2355.20;;;;;;5073197;28;20036;-83
2023/08/08 03:28:56;;;;;;;7.88;3.30;;;436.00;2355.20;;;;;;5073235;28;20029;-84
2023/08/08 03:31:22;;;;;;;5.90;3.80;;;436.10;2355.20;;;;;;5095416;28;20039;-84
2023/08/08 03:33:48;;;;;;;9.55;3.70;;;436.00;2355.20;;;;;;5091488;28;20567;-82
2023/08/08 03:36:14;;;;;;;6.43;3.70;;;436.00;2355.20;;;;;;5078888;28;20028;-82
2023/08/08 03:38:44;;;;;;;9.23;4.25;;;436.10;2355.20;;;;;;5079870;28;20048;-82
2023/08/08 03:41:09;;;;;;;6.88;3.53;;;436.00;2355.20;;;;;;5074135;28;20020;-83
2023/08/08 03:43:35;;;;;;;5.60;3.42;;;436.00;2355.20;;;;;;5072866;28;20028;-85
2023/08/08 03:46:01;;;;;;;4.35;3.70;;;436.10;2355.20;;;;;;5072964;28;20510;-84
2023/08/08 03:48:27;;;;;;;4.15;3.25;;;436.00;2355.20;;;;;;5072960;28;20028;-83
2023/08/08 03:50:52;;;;;;;5.25;3.10;;;435.90;2355.20;;;;;;5072882;28;20111;-83
2023/08/08 03:53:18;;;;;;;4.85;3.28;;;435.90;2355.20;;;;;;5072676;28;20036;-84
2023/08/08 03:55:44;;;;;;;3.97;3.13;;;435.90;2355.20;;;;;;5073178;28;20025;-83
2023/08/08 03:58:10;;;;;;;5.15;3.20;;;435.90;2355.20;;;;;;5088865;28;20036;-85
2023/08/08 04:00:37;;;;;;;4.35;3.20;;;435.90;2355.20;;;;;;5093152;28;20027;-83
2023/08/08 04:03:03;;;;;;;6.60;3.50;;;435.90;2355.20;;;;;;5092956;28;20375;-84
2023/08/08 04:05:29;;;;;;;3.83;2.97;;;435.90;2355.20;;;;;;5094148;28;20103;-84
2023/08/08 04:07:54;;;;;;;4.63;3.10;;;435.90;2355.20;;;;;;5094140;28;20435;-83
2023/08/08 04:10:20;;;;;;;5.70;3.45;;;435.90;2355.20;;;;;;5093007;28;20027;-85
2023/08/08 04:12:46;;;;;;;3.65;2.83;;;435.80;2355.20;;;;;;5092719;28;20058;-84
2023/08/08 04:15:12;;;;;;;5.90;3.10;;;435.70;2355.20;;;;;;5092617;28;20052;-84
2023/08/08 04:17:37;;;;;;;6.15;3.00;;;435.80;2355.20;;;;;;5094453;28;20077;-83
2023/08/08 04:20:06;;;;;;;5.45;2.90;;;435.80;2355.20;;;;;;5092702;28;20032;-83
2023/08/08 04:22:32;;;;;;;4.82;2.50;;;435.70;2355.20;;;;;;5092715;28;20062;-85
2023/08/08 04:24:57;;;;;;;9.75;2.70;;;435.90;2355.20;;;;;;5092720;28;20051;-84
2023/08/08 04:27:23;;;;;;;6.18;3.40;;;435.90;2355.20;;;;;;5092519;28;20025;-82
2023/08/08 04:29:49;;;;;;;4.72;2.50;;;435.90;2355.20;;;;;;5094143;28;20440;-83
2023/08/08 04:32:15;;;;;;;3.80;2.13;;;435.80;2355.20;;;;;;5092651;28;20032;-85
2023/08/08 04:34:41;;;;;;;5.45;2.35;;;435.80;2355.20;;;;;;5092055;28;20045;-83
2023/08/08 04:37:06;;;;;;;3.47;2.28;;;435.80;2355.20;;;;;;5092777;28;20111;-86
2023/08/08 04:39:32;;;;;;;3.30;2.33;;;435.80;2355.20;;;;;;5093554;28;20032;-82
2023/08/08 04:41:58;;;;;;;3.92;1.95;;;435.80;2355.20;;;;;;5092356;28;20513;-83
2023/08/08 04:44:24;;;;;;;3.42;2.20;;;435.70;2355.20;;;;;;5092764;28;20028;-85
2023/08/08 04:46:49;;;;;;;3.55;2.10;;;435.70;2355.20;;;;;;5092636;28;20020;-85
2023/08/08 04:49:15;;;;;;;3.88;2.55;;;435.70;2355.20;;;;;;5092573;28;20032;-83
2023/08/08 04:51:41;;;;;;;5.07;2.13;;;435.60;2355.20;;;;;;5092597;28;20499;-86
2023/08/08 04:54:07;;;;;;;5.50;1.90;;;;;;;;;;5092249;28;20074;-85
2023/08/08 04:56:33;;;;;;;4.57;2.17;;;;;;;;;;5092411;28;20020;-83
2023/08/08 04:58:59;;;;;;;4.20;2.08;;;;;;;;;;5092361;28;20032;-83
2023/08/08 05:01:25;;;;;;;3.40;2.10;;;;;;;;;;5092383;28;20110;-86
2023/08/08 05:03:51;;;;;;;3.30;2.13;;;;;;;;;;5092422;28;20077;-85
2023/08/08 05:06:17;;;;;;;5.07;2.35;;;;;;;;;;5092603;28;20495;-84
2023/08/08 05:08:44;;;;;;;8.50;2.03;;;;;;;;;;5092091;28;20035;-84
2023/08/08 05:11:10;;;;;;;4.60;2.38;;;;;;;;;;5092310;28;20601;-84
2023/08/08 05:13:36;;;;;;;3.50;2.13;;;;;;;;;;5092297;28;20024;-84
2023/08/08 05:16:02;;;;;;;4.50;2.05;;;;;;;;;;5092754;28;20097;-83
2023/08/08 05:18:28;;;;;;;3.22;2.10;;;;;;;;;;5095815;28;20118;-83
2023/08/08 05:20:54;;;;;;;3.72;2.10;;;;;;;;;;5095826;28;20030;-85
2023/08/08 05:23:20;;;;;;;4.97;2.33;;;;;;;;;;5095812;28;20046;-83
2023/08/08 05:25:46;;;;;;;5.95;2.42;;;;;;;;;;5095833;28;20024;-83
2023/08/08 05:28:12;;;;;;;3.50;2.55;;;;;;;;;;5095824;28;20032;-83
2023/08/08 05:30:39;;;;;;;7.43;2.45;;;;;;;;;;5095506;28;20098;-85
2023/08/08 05:33:05;;;;;;;5.85;2.67;;;;;;;;;;5097196;28;20024;-83
2023/08/08 05:35:31;;;;;;;4.18;2.50;;;;;;;;;;5096935;28;20055;-83
2023/08/08 05:37:57;;;;;;;5.13;2.80;;;;;;;;;;5096624;28;20032;-84
2023/08/08 05:40:23;;;;;;;3.72;2.78;;;;;;;;;;5095531;28;20029;-83
2023/08/08 05:42:49;;;;;;;3.97;2.30;;;;;;;;;;5095462;28;20028;-83
2023/08/08 05:45:15;;;;;;;5.75;2.58;;;;;;;;;;5095097;28;20051;-85
2023/08/08 05:47:41;;;;;;;5.05;2.40;;;;;;;;;;5095419;28;20131;-82
2023/08/08 05:50:08;;;;;;;5.53;2.50;;;;;;;;;;5096375;28;20494;-82
2023/08/08 05:52:34;;;;;;;4.43;3.00;;;;;;;;;;5095379;28;20366;-84
2023/08/08 05:55:00;;;;;;;3.92;2.30;;;;;;;;;;5095423;28;20384;-84
2023/08/08 05:57:26;;;;;;;4.15;2.55;;;;;;;;;;5094952;28;20020;-84
2023/08/08 05:59:53;;;;;;;4.07;2.40;;;;;;;;;;5095359;28;20127;-82
2023/08/08 06:02:19;;;;;;;4.18;2.72;;;;;;;;;;5095015;28;20116;-83
2023/08/08 06:04:45;;;;;;;3.25;2.08;;;;;;;;;;5096419;28;20413;-83
2023/08/08 06:07:11;;;;;;;4.22;2.28;;;;;;;;;;5094910;28;20077;-83
2023/08/08 06:09:37;;;;;;;6.43;2.05;;;;;;;;;;5094909;28;20031;-83
2023/08/08 06:12:04;;;;;;;4.05;2.03;;;;;;;;;;5094731;28;20024;-83
2023/08/08 06:14:31;;;;;;;3.55;1.90;;;;;;;;;;5094239;28;20031;-84
2023/08/08 06:16:57;;;;;;;3.40;2.00;;;;;;;;;;5096032;28;20471;-84
2023/08/08 06:19:23;;;;;;;3.28;2.13;;;;;;;;;;5094413;28;20535;-82
2023/08/08 06:21:50;;;;;;;3.05;1.90;;;;;;;;;;5094830;28;20028;-83
2023/08/08 06:24:16;;;;;;;4.68;2.08;;;;;;;;;;5094648;28;20476;-84
2023/08/08 06:26:42;;;;;;;4.18;1.75;;;;;;;;;;5094281;28;20024;-86
2023/08/08 06:29:08;;;;;;;3.17;2.00;;;;;;;;;;5093651;28;20024;-83
2023/08/08 06:31:34;;;;;;;2.90;1.55;;;;;;;;;;5094423;28;20027;-83
2023/08/08 06:34:01;;;;;;;3.40;1.63;;;;;;;;;;5095310;28;20020;-82
2023/08/08 06:36:27;;;;;;;3.42;1.60;;;;;;;;;;5094664;28;20016;-85
2023/08/08 06:38:53;;;;;;;5.78;1.67;;;;;;;;;;5094250;28;20028;-83
2023/08/08 06:41:19;;;;;;;5.10;1.80;;;;;;;;;;5095349;28;20035;-82
2023/08/08 06:43:45;;;;;;;6.22;2.40;;;;;;;;;;5094026;28;20024;-85
2023/08/08 06:46:11;;;;;;;3.22;1.60;;;;;;;;;;5095394;28;20021;-84
2023/08/08 06:48:37;;;;;;;3.40;1.60;;;;;;;;;;5094209;28;20027;-82
2023/08/08 06:51:04;;;;;;;4.30;2.58;;;;;;;;;;5094510;28;20024;-85
2023/08/08 06:53:30;;;;;;;7.47;2.22;;;;;;;;;;5093760;28;20024;-82
2023/08/08 06:55:56;;;;;;;4.47;1.83;;;486.40;2380.80;;;;;;5094102;28;20023;-83
2023/08/08 06:58:21;;;;;;;3.28;1.90;;;461.60;2380.80;;;;;;5093551;28;20433;-83
2023/08/08 07:00:47;;;;;;;3.45;2.05;;;461.60;2380.80;;;;;;5094562;28;20031;-82
2023/08/08 07:03:13;;;;;;;4.20;2.35;;;461.70;2380.80;;;;;;5094157;28;20106;-82
2023/08/08 07:05:39;;;;;;;3.40;2.00;;;461.70;2380.80;;;;;;5093986;28;20472;-82
2023/08/08 07:08:05;;;;;;;5.28;1.70;;;461.60;2380.80;;;;;;5094781;28;20038;-83
2023/08/08 07:10:31;;;;;;;4.88;1.73;;;461.60;2380.80;;;;;;5095039;28;20023;-82
2023/08/08 07:12:56;;;;;;;4.25;2.13;;;461.60;2380.80;;;;;;5092341;28;20388;-81
2023/08/08 07:15:22;;;;;;;3.92;2.40;;;461.50;2380.80;;;;;;5094462;28;20040;-84
2023/08/08 07:17:48;;;;;;;4.63;2.70;;;461.60;2380.80;;;;;;5093527;28;20085;-81
2023/08/08 07:20:14;;;;;;;8.88;2.88;;;486.40;2380.80;;;;;;5094867;28;20357;-83
2023/08/08 07:22:40;;;;;;;4.15;2.10;;;486.50;2380.80;;;;;;5094277;28;20101;-81
2023/08/08 07:25:06;;;;;;;6.75;2.50;;;486.50;2380.80;;;;;;5094672;28;20460;-81
2023/08/08 07:27:32;;;;;;;3.72;2.03;;;486.60;2380.80;;;;;;5108808;28;20012;-81
2023/08/08 07:29:58;;;;;;;6.45;2.10;;;486.50;2380.80;;;;;;5105995;28;20032;-83
2023/08/08 07:32:24;;;;;;;7.30;2.50;;;486.50;2380.80;;;;;;5112305;28;20027;-80
2023/08/08 07:34:50;;;;;;;4.00;2.10;;;486.50;2380.80;;;;;;5094944;28;20107;-83
2023/08/08 07:37:16;;;;;;;3.83;1.98;;;486.50;2380.80;;;;;;5094964;28;20109;-83
2023/08/08 07:39:42;;;;;;;4.68;1.83;;;486.50;2380.80;;;;;;5095009;28;20071;-84
2023/08/08 07:42:07;;;;;;;5.32;1.90;;;486.50;2380.80;;;;;;5092949;28;20028;-82
2023/08/08 07:44:35;;;;;;;4.40;2.70;;;486.50;2380.80;;;;;;5089306;28;20021;-83
2023/08/08 07:47:00;;;;;;;3.83;2.28;;;486.50;2380.80;;;;;;5089663;28;20035;-85
2023/08/08 07:49:26;;;;;;;4.80;2.50;;;486.50;2380.80;;;;;;5074295;28;20033;-84
2023/08/08 07:51:52;;;;;;;3.15;2.13;;;486.50;2380.80;;;;;;5073799;28;20024;-84
2023/08/08 07:54:18;;;;;;;4.28;2.65;;;486.50;2380.80;;;;;;5089579;28;20025;-84
2023/08/08 07:56:43;;;;;;;4.07;2.47;;;486.50;2380.80;;;;;;5074009;28;20479;-82
2023/08/08 07:59:09;;;;;;;3.80;2.53;;;486.50;2380.80;;;;;;5072445;28;20097;-83
2023/08/08 08:01:35;;;;;;;4.75;2.55;;;486.50;2380.80;;;;;;5089704;28;20025;-83
2023/08/08 08:04:02;;;;;;;5.28;2.33;;;486.50;2380.80;;;;;;5072134;28;20115;-83
2023/08/08 08:06:28;;;;;;;3.63;2.35;;;486.60;2380.80;;;;;;5089272;28;20078;-81
2023/08/08 08:08:54;;;;;;;3.90;2.40;;;486.60;2380.80;;;;;;5072909;28;20091;-83
2023/08/08 08:11:20;;;;;;;3.42;2.20;;;486.70;2380.80;;;;;;5089115;28;20052;-82
2023/08/08 08:13:45;;;;;;;4.13;2.05;;;486.80;2380.80;;;;;;5089544;28;20052;-81
2023/08/08 08:16:11;;;;;;;3.80;2.55;;;486.80;2380.80;;;;;;5072512;28;20392;-83
2023/08/08 08:18:37;;;;;;;3.20;2.13;;;486.80;2380.80;;;;;;5072390;28;20036;-82
2023/08/08 08:21:03;;;;;;;5.45;2.45;;;487.10;2380.80;;;;;;5073761;28;20028;-83
2023/08/08 08:23:30;;;;;;;3.05;1.90;;;487.30;2380.80;;;;;;5089450;28;20029;-83
2023/08/08 08:25:55;;;;;;;3.38;2.20;;;512.20;2380.80;;;;;;5072397;28;20056;-83
2023/08/08 08:28:22;;;;;;;5.35;2.40;;;512.40;2380.80;;;;;;5073646;28;20364;-80
2023/08/08 08:30:48;;;;;;;4.95;2.10;;;512.40;2380.80;;;;;;5073462;28;20108;-81
2023/08/08 08:33:13;;;;;;;3.60;1.77;;;512.40;2380.80;;;;;;5072185;28;20052;-81
2023/08/08 08:35:39;;;;;;;2.85;1.90;;;512.30;2380.80;;;;;;5072415;28;20028;-82
2023/08/08 08:38:06;;;;;;;3.42;2.20;;;512.20;2380.80;;;;;;5089018;28;20028;-82
2023/08/08 08:40:37;;;;;;;3.00;2.15;;;512.20;2380.80;;;;;;5072540;28;20031;-82
2023/08/08 08:43:05;;;;;;;2.90;2.03;;;512.10;2380.80;;;;;;5089421;28;20089;-82
2023/08/08 08:45:31;;;;;;;3.55;2.15;;;487.30;2380.80;;;;;;5089521;28;20028;-83
2023/08/08 08:47:59;;;;;;;3.15;1.88;;;487.30;2380.80;;;;;;5091777;28;20025;-82
2023/08/08 08:50:27;;;;;;;6.47;2.75;;;487.30;2380.80;;;;;;5091229;28;20029;-85
2023/08/08 08:52:55;;;;;;;3.50;2.38;;;512.20;2380.80;;;;;;5094406;28;20029;-82
2023/08/08 08:55:21;;;;;;;4.22;2.55;;;512.80;2380.80;;;;;;5093744;28;20078;-83
2023/08/08 08:57:49;;;;;;;4.15;1.80;;;512.90;2380.80;;;;;;5077657;28;20538;-81
2023/08/08 09:00:16;;;;;;;3.22;2.10;;;512.70;2380.80;;;;;;5092720;28;20031;-81
2023/08/08 09:02:41;;;;;;;4.43;2.85;;;512.70;2380.80;;;;;;5092782;28;20029;-81
2023/08/08 09:05:09;;;;;;;4.35;2.83;;;512.60;2380.80;;;;;;5092876;28;20123;-82
2023/08/08 09:07:36;;;;;;;3.60;2.55;;;512.70;2380.80;;;;;;5076489;28;20025;-82
2023/08/08 09:10:03;;;;;;;3.05;2.28;;;512.60;2380.80;;;;;;5092900;28;20047;-81
2023/08/08 09:12:31;;;;;;;3.72;2.35;;;512.60;2380.80;;;;;;5092184;28;20032;-81
2023/08/08 09:14:57;;;;;;;4.00;2.55;;;512.50;2380.80;;;;;;5092179;28;20052;-83
2023/08/08 09:17:26;;;;;;;4.70;2.70;;;512.50;2380.80;;;;;;5092663;28;20074;-81
2023/08/08 09:19:54;;;;;;;3.63;2.55;;;512.40;2380.80;;;;;;5095881;28;20036;-81
2023/08/08 09:22:20;;;;;;;4.03;2.58;;;512.40;2380.80;;;;;;5095617;28;20024;-81
2023/08/08 09:24:46;;;;;;;3.03;2.13;;;512.40;2380.80;;;;;;5095675;28;20024;-82
2023/08/08 09:27:13;;;;;;;3.72;2.45;;;512.40;2380.80;;;;;;5095527;28;20024;-81
2023/08/08 09:29:41;;;;;;;6.53;2.22;;;512.30;2380.80;;;;;;5095816;28;20059;-81
2023/08/08 09:32:08;;;;;;;4.78;2.50;;;512.20;2380.80;;;;;;5095671;28;20028;-83
2023/08/08 09:34:34;;;;;;;3.70;2.38;;;512.30;2380.80;;;;;;5095365;28;20031;-81
2023/08/08 09:37:00;;;;;;;4.28;2.90;;;512.40;2380.80;;;;;;5096745;28;20108;-84
2023/08/08 09:39:27;;;;;;;3.65;2.67;;;512.60;2380.80;;;;;;5095489;28;20039;-82
2023/08/08 09:41:53;;;;;;;4.07;2.50;;;512.70;2380.80;;;;;;5094984;28;20035;-82
2023/08/08 09:44:24;;;;;;;3.95;2.55;;;537.80;2406.40;;;;;;5095408;28;20032;-82
2023/08/08 09:46:50;;;;;;;3.30;2.50;;;538.00;2406.40;;;;;;5095607;28;20025;-83
2023/08/08 09:49:17;;;;;;;2.90;2.10;;;538.10;2406.40;;;;;;5095472;28;20028;-83
2023/08/08 09:51:43;;;;;;;4.25;2.50;;;538.20;2406.40;;;;;;5095702;28;20062;-84
2023/08/08 09:54:10;;;;;;;3.75;2.30;;;538.20;2406.40;;;;;;5096396;28;20503;-82
2023/08/08 09:56:39;;;;;;;3.72;2.50;;;538.20;2406.40;;;;;;5095883;28;20425;-84
2023/08/08 09:59:06;;;;;;;4.00;2.28;;;538.30;2406.40;;;;;;5096429;28;20074;-84
2023/08/08 10:01:32;;;;;;;3.40;2.00;;;538.10;2406.40;;;;;;5095119;28;20066;-84
2023/08/08 10:03:59;;;;;;;3.60;2.25;;;538.00;2406.40;;;;;;5095252;28;20024;-83
2023/08/08 10:06:25;;;;;;;4.45;2.33;;;537.90;2406.40;;;;;;5095379;28;20024;-85
2023/08/08 10:08:51;;;;;;;3.28;2.15;;;537.90;2406.40;;;;;;5095145;28;20024;-84
2023/08/08 10:11:19;;;;;;;4.32;3.08;;;538.00;2406.40;;;;;;5094628;28;20028;-84
2023/08/08 10:13:50;;;;;;;3.38;2.22;;;537.90;2406.40;;;;;;5095102;28;20028;-84
2023/08/08 10:16:17;;;;;;;4.50;1.98;;;537.90;2406.40;;;;;;5094462;28;20093;-83
2023/08/08 10:18:43;;;;;;;6.07;3.05;;;537.90;2406.40;;;;;;5094381;28;20032;-83
2023/08/08 10:21:10;;;;;;;3.00;1.88;;;537.90;2406.40;;;;;;5094689;28;20028;-82
2023/08/08 10:23:39;;;;;;;4.40;2.03;;;537.90;2406.40;;;;;;5095781;28;20376;-82
2023/08/08 10:26:17;;;;;;;3.28;1.92;;;537.90;2406.40;;;;;;5096226;28;20028;-81
2023/08/08 10:28:56;;;;;;;3.10;1.90;;;537.90;2406.40;;;;;;5095966;28;20061;-82
2023/08/08 10:31:22;;;;;;;3.25;2.03;;;537.70;2406.40;;;;;;5092061;28;20020;-81
2023/08/08 10:33:48;;;;;;;5.82;3.45;;;537.70;2406.40;;;;;;5114815;28;20073;-82
2023/08/08 10:36:13;;;;;;;3.20;1.83;;;537.80;2406.40;;;;;;5113356;28;20126;-82
2023/08/08 10:38:42;;;;;;;3.55;1.70;;;537.80;2406.40;;;;;;5094901;28;20380;-81
2023/08/08 10:41:19;;;;;;;3.33;1.80;;;537.80;2406.40;;;;;;5094075;28;20422;-82
2023/08/08 10:43:55;;;;;;;4.38;1.70;;;537.90;2406.40;;;;;;5092593;28;20032;-82
2023/08/08 10:46:26;;;;;;;2.58;1.60;;;538.00;2406.40;;;;;;5092536;28;20024;-81
2023/08/08 10:48:53;;;;;;;2.78;1.38;;;538.10;2406.40;;;;;;5095297;28;20032;-83
2023/08/08 10:51:19;;;;;;;3.00;1.60;;;538.20;2406.40;;;;;;5093774;28;20349;-84
2023/08/08 10:53:45;;;;;;;2.78;1.38;;;538.30;2406.40;;;;;;5077055;28;20063;-82
2023/08/08 10:56:13;;;;;;;2.85;1.60;;;538.40;2406.40;;;;;;5093951;28;20031;-82
2023/08/08 10:58:41;;;;;;;2.35;1.30;;;538.40;2406.40;;;;;;5093683;28;20114;-82
2023/08/08 11:01:09;;;;;;;2.75;1.20;;;538.40;2406.40;;;;;;5094063;28;20051;-83
2023/08/08 11:03:41;;;;;;;3.83;1.15;;;538.40;2406.40;;;;;;5094034;28;20420;-83
2023/08/08 11:06:08;;;;;;;2.25;1.25;;;538.40;2406.40;;;;;;5102334;28;20020;-82
2023/08/08 11:08:36;;;;;;;2.47;1.17;;;538.30;2406.40;;;;;;5114226;28;20042;-83
2023/08/08 11:11:03;;;;;;;3.58;1.45;;;538.40;2406.40;;;;;;5112487;28;20016;-81
2023/08/08 11:13:29;;;;;;;2.70;1.25;;;538.20;2406.40;;;;;;5092499;28;20032;-84
2023/08/08 11:15:55;;;;;;;3.20;1.30;;;538.20;2406.40;;;;;;5093891;28;20044;-81
2023/08/08 11:18:21;;;;;;;2.63;1.60;;;538.20;2406.40;;;;;;5093539;28;20032;-83
2023/08/08 11:20:48;;;;;;;3.40;2.20;;;538.40;2406.40;;;;;;5093311;28;20053;-81
2023/08/08 11:23:15;;;;;;;7.97;3.40;;;538.50;2406.40;;;;;;5093614;28;20028;-81
2023/08/08 11:25:43;;;;;;;3.92;1.80;;;563.30;2432.00;;;;;;5094579;28;20361;-83
2023/08/08 11:28:10;;;;;;;3.95;1.20;;;563.50;2432.00;;;;;;5094652;28;20519;-81
2023/08/08 11:30:39;;;;;;;3.40;1.65;;;564.00;2432.00;;;;;;5097500;28;20004;-82
2023/08/08 11:33:06;;;;;;;3.13;1.50;;;563.90;2432.00;;;;;;5118462;28;20012;-80
2023/08/08 11:35:33;;;;;;;2.17;1.10;;;563.90;2432.00;;;;;;5101545;28;20024;-81
2023/08/08 11:38:00;;;;;;;2.45;1.30;;;563.80;2432.00;;;;;;5096318;28;20032;-81
2023/08/08 11:40:28;;;;;;;3.45;2.10;;;563.90;2432.00;;;;;;5098674;28;20076;-82
2023/08/08 11:42:56;;;;;;;4.40;1.85;;;563.90;2432.00;;;;;;5093223;28;20088;-83
2023/08/08 11:45:22;;;;;;;3.20;1.50;;;564.00;2432.00;;;;;;5091685;28;20028;-80
2023/08/08 11:47:53;;;;;;;2.25;1.20;;;589.00;2432.00;;;;;;5092498;28;20054;-81
2023/08/08 11:50:22;;;;;;;4.50;1.80;;;563.90;2432.00;;;;;;5092986;28;20054;-83
2023/08/08 11:52:50;;;;;;;1.98;1.10;;;563.90;2432.00;;;;;;5092745;28;20152;-83
2023/08/08 11:55:16;;;;;;;2.88;1.20;;;563.90;2432.00;;;;;;5092595;28;20368;-82
2023/08/08 11:57:42;;;;;;;3.30;1.27;;;564.00;2432.00;;;;;;5078200;28;20126;-83
2023/08/08 12:00:13;;;;;;;3.08;1.10;;;564.10;2432.00;;;;;;5082878;28;20479;-85
2023/08/08 12:02:41;;;;;;;2.60;1.00;;;564.10;2432.00;;;;;;5092734;28;20035;-83
2023/08/08 12:05:08;;;;;;;2.47;1.20;;;563.80;2406.40;;;;;;5092654;28;20028;-83
2023/08/08 12:07:35;;;;;;;2.53;1.30;;;563.60;2406.40;;;;;;5092443;28;20058;-82
2023/08/08 12:10:06;;;;;;;2.10;1.00;;;564.00;2432.00;;;;;;5092946;28;20363;-83
2023/08/08 12:12:35;;;;;;;2.88;1.60;;;589.20;2432.00;;;;;;5092987;28;20133;-84
2023/08/08 12:15:06;;;;;;;5.53;2.00;;;589.40;2380.80;;;;;;5092443;28;20054;-84
2023/08/08 12:17:33;;;;;;;3.35;1.80;;;;;;;;;;5093159;28;20035;-83
2023/08/08 12:20:05;;;;;;;4.00;1.60;;;;;;;;;;5094092;28;20111;-83
2023/08/08 12:22:31;;;;;;;3.33;1.90;;;;;;;;;;5092640;28;20016;-86
2023/08/08 12:24:57;;;;;;;2.72;1.27;;;;;;;;;;5092571;28;20365;-84
2023/08/08 12:27:23;;;;;;;3.28;1.48;;;;;;;;;;5095245;28;20380;-82
2023/08/08 12:29:49;;;;;;;3.35;1.70;;;;;;;;;;5096529;28;20043;-83
2023/08/08 12:32:16;;;;;;;3.08;1.40;;;;;;;;;;5096376;28;20103;-84
2023/08/08 12:34:42;;;;;;;2.35;1.23;;;;;;;;;;5095678;28;20020;-81
2023/08/08 12:37:08;;;;;;;5.72;1.40;;;;;;;;;;5097190;28;20490;-85
2023/08/08 12:39:34;;;;;;;1.90;0.98;;;;;;;;;;5096498;28;20035;-83